createdAt,value
2018-12-09T00:00:07.251Z,1006.73
2018-12-09T00:01:07.239Z,1006.74
2018-12-09T00:02:07.229Z,1006.69
2018-12-09T00:03:07.219Z,1006.65
2018-12-09T00:04:07.206Z,1006.74
2018-12-09T00:05:07.195Z,1006.64
2018-12-09T00:06:07.187Z,1006.55
2018-12-09T00:07:07.174Z,1006.57
2018-12-09T00:08:07.161Z,1006.52
2018-12-09T00:09:07.149Z,1006.48
2018-12-09T00:10:07.139Z,1006.36
2018-12-09T00:11:07.128Z,1006.42
2018-12-09T00:12:07.119Z,1006.36
2018-12-09T00:13:07.106Z,1006.38
2018-12-09T00:14:07.094Z,1006.32
2018-12-09T00:15:07.083Z,1006.31
2018-12-09T00:16:07.072Z,1006.28
2018-12-09T00:17:07.061Z,1006.27
2018-12-09T00:18:07.056Z,1006.24
2018-12-09T00:19:07.039Z,1006.21
2018-12-09T00:20:07.029Z,1006.22
2018-12-09T00:21:07.017Z,1006.15
2018-12-09T00:22:07.006Z,1006.13
2018-12-09T00:23:06.993Z,1006.08
2018-12-09T00:24:06.983Z,1006.03
2018-12-09T00:25:06.972Z,1006.04
2018-12-09T00:26:06.961Z,1005.98
2018-12-09T00:27:06.949Z,1005.86
2018-12-09T00:28:06.939Z,1005.89
2018-12-09T00:29:06.927Z,1005.9
2018-12-09T00:30:06.917Z,1005.89
2018-12-09T00:31:06.906Z,1005.82
2018-12-09T00:32:06.895Z,1005.83
2018-12-09T00:33:06.884Z,1005.81
2018-12-09T00:34:06.873Z,1005.81
2018-12-09T00:35:06.862Z,1005.75
2018-12-09T00:36:06.851Z,1005.78
2018-12-09T00:37:06.838Z,1005.7
2018-12-09T00:38:06.829Z,1005.7
2018-12-09T00:39:06.819Z,1005.71
2018-12-09T00:40:06.806Z,1005.62
2018-12-09T00:41:06.795Z,1005.66
2018-12-09T00:42:06.785Z,1005.66
2018-12-09T00:43:06.774Z,1005.62
2018-12-09T00:44:06.765Z,1005.63
2018-12-09T00:45:06.751Z,1005.64
2018-12-09T00:46:06.741Z,1005.64
2018-12-09T00:47:06.729Z,1005.64
2018-12-09T00:48:06.719Z,1005.49
2018-12-09T00:49:06.706Z,1005.53
2018-12-09T00:50:06.696Z,1005.53
2018-12-09T00:51:06.772Z,1005.54
2018-12-09T00:52:06.672Z,1005.51
2018-12-09T00:53:06.663Z,1005.5
2018-12-09T00:54:06.655Z,1005.44
2018-12-09T00:55:06.640Z,1005.4
2018-12-09T00:56:06.630Z,1005.34
2018-12-09T00:57:06.619Z,1005.31
2018-12-09T00:58:06.608Z,1005.25
2018-12-09T00:59:06.597Z,1005.23
2018-12-09T01:00:06.587Z,1005.24
2018-12-09T01:01:06.573Z,1005.16
2018-12-09T01:02:06.564Z,1005.14
2018-12-09T01:03:06.551Z,1005.1
2018-12-09T01:04:06.540Z,1005.09
2018-12-09T01:05:06.529Z,1005.02
2018-12-09T01:06:06.520Z,1005
2018-12-09T01:07:06.507Z,1004.99
2018-12-09T01:08:06.497Z,1004.96
2018-12-09T01:09:06.485Z,1004.89
2018-12-09T01:10:06.472Z,1004.94
2018-12-09T01:11:06.462Z,1004.95
2018-12-09T01:12:06.451Z,1005.03
2018-12-09T01:13:06.440Z,1004.95
2018-12-09T01:14:06.430Z,1005.03
2018-12-09T01:15:06.419Z,1005.02
2018-12-09T01:16:06.408Z,1005.07
2018-12-09T01:17:06.396Z,1004.97
2018-12-09T01:18:06.386Z,1004.96
2018-12-09T01:19:06.375Z,1004.86
2018-12-09T01:20:06.363Z,1004.92
2018-12-09T01:21:06.351Z,1004.9
2018-12-09T01:22:06.340Z,1004.84
2018-12-09T01:23:06.329Z,1004.84
2018-12-09T01:24:06.317Z,1004.79
2018-12-09T01:25:06.307Z,1004.72
2018-12-09T01:26:06.298Z,1004.76
2018-12-09T01:27:06.285Z,1004.82
2018-12-09T01:28:06.273Z,1004.8
2018-12-09T01:29:06.262Z,1004.77
2018-12-09T01:30:06.250Z,1004.7
2018-12-09T01:31:06.241Z,1004.65
2018-12-09T01:32:06.229Z,1004.55
2018-12-09T01:33:06.219Z,1004.49
2018-12-09T01:34:06.209Z,1004.5
2018-12-09T01:35:06.195Z,1004.47
2018-12-09T01:36:06.183Z,1004.42
2018-12-09T01:37:06.173Z,1004.38
2018-12-09T01:38:06.162Z,1004.32
2018-12-09T01:39:06.150Z,1004.28
2018-12-09T01:40:06.139Z,1004.37
2018-12-09T01:41:06.129Z,1004.38
2018-12-09T01:42:06.116Z,1004.36
2018-12-09T01:43:06.104Z,1004.28
2018-12-09T01:44:06.095Z,1004.31
2018-12-09T01:45:06.083Z,1004.18
2018-12-09T01:46:06.072Z,1004.17
2018-12-09T01:47:06.059Z,1004.13
2018-12-09T01:48:06.049Z,1004.11
2018-12-09T01:49:06.039Z,1004.11
2018-12-09T01:50:06.028Z,1004.06
2018-12-09T01:51:06.016Z,1004.03
2018-12-09T01:52:06.005Z,1004.04
2018-12-09T01:53:05.994Z,1004.06
2018-12-09T01:54:05.985Z,1004.06
2018-12-09T01:55:05.974Z,1003.99
2018-12-09T01:56:05.958Z,1003.96
2018-12-09T01:57:05.947Z,1003.95
2018-12-09T01:58:05.937Z,1003.89
2018-12-09T01:59:05.925Z,1003.85
2018-12-09T02:00:05.915Z,1003.81
2018-12-09T02:01:05.903Z,1003.77
2018-12-09T02:02:05.892Z,1003.73
2018-12-09T02:03:05.879Z,1003.8
2018-12-09T02:04:05.868Z,1003.78
2018-12-09T02:05:05.856Z,1003.79
2018-12-09T02:06:05.846Z,1003.77
2018-12-09T02:07:05.835Z,1003.77
2018-12-09T02:08:05.824Z,1003.76
2018-12-09T02:09:05.812Z,1003.74
2018-12-09T02:10:05.802Z,1003.69
2018-12-09T02:11:05.792Z,1003.65
2018-12-09T02:12:05.779Z,1003.59
2018-12-09T02:13:05.770Z,1003.57
2018-12-09T02:14:05.755Z,1003.47
2018-12-09T02:15:05.744Z,1003.57
2018-12-09T02:16:05.733Z,1003.53
2018-12-09T02:17:05.721Z,1003.54
2018-12-09T02:18:05.711Z,1003.49
2018-12-09T02:19:05.698Z,1003.45
2018-12-09T02:20:05.688Z,1003.42
2018-12-09T02:21:05.677Z,1003.38
2018-12-09T02:22:05.666Z,1003.3
2018-12-09T02:23:05.653Z,1003.28
2018-12-09T02:24:05.642Z,1003.27
2018-12-09T02:25:05.631Z,1003.19
2018-12-09T02:26:05.620Z,1003.14
2018-12-09T02:27:05.607Z,1003.13
2018-12-09T02:28:05.596Z,1003.04
2018-12-09T02:29:05.585Z,1002.96
2018-12-09T02:30:05.579Z,1002.98
2018-12-09T02:31:05.564Z,1002.99
2018-12-09T02:32:05.552Z,1002.95
2018-12-09T02:33:05.540Z,1002.8
2018-12-09T02:34:05.527Z,1002.76
2018-12-09T02:35:05.517Z,1002.72
2018-12-09T02:36:05.506Z,1002.65
2018-12-09T02:37:05.510Z,1002.61
2018-12-09T02:38:05.483Z,1002.54
2018-12-09T02:39:05.472Z,1002.51
2018-12-09T02:40:05.461Z,1002.49
2018-12-09T02:41:05.449Z,1002.48
2018-12-09T02:42:05.438Z,1002.45
2018-12-09T02:43:05.428Z,1002.46
2018-12-09T02:44:05.416Z,1002.46
2018-12-09T02:45:05.406Z,1002.42
2018-12-09T02:46:05.392Z,1002.38
2018-12-09T02:47:05.382Z,1002.28
2018-12-09T02:48:05.372Z,1002.32
2018-12-09T02:49:05.361Z,1002.26
2018-12-09T02:50:05.349Z,1002.2
2018-12-09T02:51:05.338Z,1002.2
2018-12-09T02:52:05.327Z,1002.14
2018-12-09T02:53:05.315Z,1002.13
2018-12-09T02:54:05.308Z,1002.07
2018-12-09T02:55:05.295Z,1002.12
2018-12-09T02:56:05.283Z,1002.15
2018-12-09T02:57:05.273Z,1002.14
2018-12-09T02:58:05.259Z,1002.14
2018-12-09T02:59:05.307Z,1002.1
2018-12-09T03:00:05.241Z,1002.07
2018-12-09T03:01:05.230Z,1002.05
2018-12-09T03:02:05.216Z,1001.97
2018-12-09T03:03:05.207Z,1001.98
2018-12-09T03:04:05.193Z,1002.05
2018-12-09T03:05:05.186Z,1002.02
2018-12-09T03:06:05.175Z,1001.95
2018-12-09T03:07:05.163Z,1001.97
2018-12-09T03:08:05.152Z,1002
2018-12-09T03:09:05.141Z,1001.93
2018-12-09T03:10:05.132Z,1001.94
2018-12-09T03:11:05.117Z,1002.02
2018-12-09T03:12:05.106Z,1001.97
2018-12-09T03:13:05.097Z,1002.01
2018-12-09T03:14:05.085Z,1002.08
2018-12-09T03:15:05.074Z,1002.01
2018-12-09T03:16:05.064Z,1001.96
2018-12-09T03:17:05.052Z,1001.98
2018-12-09T03:18:05.046Z,1001.96
2018-12-09T03:19:05.032Z,1001.94
2018-12-09T03:20:05.028Z,1001.91
2018-12-09T03:21:05.012Z,1001.96
2018-12-09T03:22:04.997Z,1001.96
2018-12-09T03:23:04.986Z,1002.02
2018-12-09T03:24:04.976Z,1001.91
2018-12-09T03:25:04.965Z,1001.94
2018-12-09T03:26:04.953Z,1001.89
2018-12-09T03:27:04.943Z,1001.83
2018-12-09T03:28:04.933Z,1001.77
2018-12-09T03:29:04.922Z,1001.79
2018-12-09T03:30:04.912Z,1001.8
2018-12-09T03:31:04.901Z,1001.68
2018-12-09T03:32:04.904Z,1001.69
2018-12-09T03:33:04.879Z,1001.67
2018-12-09T03:34:04.866Z,1001.61
2018-12-09T03:35:04.857Z,1001.63
2018-12-09T03:36:04.845Z,1001.65
2018-12-09T03:37:04.833Z,1001.64
2018-12-09T03:38:04.828Z,1001.58
2018-12-09T03:39:04.813Z,1001.57
2018-12-09T03:40:04.803Z,1001.55
2018-12-09T03:41:04.792Z,1001.44
2018-12-09T03:42:04.781Z,1001.43
2018-12-09T03:43:04.770Z,1001.42
2018-12-09T03:44:04.757Z,1001.35
2018-12-09T03:45:04.747Z,1001.39
2018-12-09T03:46:04.740Z,1001.37
2018-12-09T03:47:04.726Z,1001.36
2018-12-09T03:48:04.716Z,1001.3
2018-12-09T03:49:04.706Z,1001.39
2018-12-09T03:50:04.694Z,1001.39
2018-12-09T03:51:04.682Z,1001.33
2018-12-09T03:52:04.674Z,1001.29
2018-12-09T03:53:04.662Z,1001.3
2018-12-09T03:54:04.650Z,1001.31
2018-12-09T03:55:04.639Z,1001.19
2018-12-09T03:56:04.629Z,1001.27
2018-12-09T03:57:04.621Z,1001.25
2018-12-09T03:58:04.609Z,1001.23
2018-12-09T03:59:04.598Z,1001.21
2018-12-09T04:00:04.588Z,1001.13
2018-12-09T04:01:04.578Z,1001.26
2018-12-09T04:02:04.565Z,1001.17
2018-12-09T04:03:04.555Z,1001.22
2018-12-09T04:04:04.545Z,1001.13
2018-12-09T04:05:04.533Z,1001.15
2018-12-09T04:06:04.522Z,1001.14
2018-12-09T04:07:04.514Z,1001.09
2018-12-09T04:08:04.501Z,1001.13
2018-12-09T04:09:04.490Z,1000.98
2018-12-09T04:10:04.480Z,1001.05
2018-12-09T04:11:04.470Z,1001.1
2018-12-09T04:12:04.460Z,1001.07
2018-12-09T04:13:04.448Z,1001.02
2018-12-09T04:14:04.439Z,1000.99
2018-12-09T04:15:04.429Z,1001.08
2018-12-09T04:16:04.415Z,1000.9
2018-12-09T04:17:04.408Z,1000.99
2018-12-09T04:18:04.398Z,1000.93
2018-12-09T04:19:04.387Z,1001.01
2018-12-09T04:20:04.375Z,1001
2018-12-09T04:21:04.367Z,1001.01
2018-12-09T04:22:04.354Z,1000.93
2018-12-09T04:23:04.344Z,1000.94
2018-12-09T04:24:04.334Z,1000.98
2018-12-09T04:25:04.323Z,1001.05
2018-12-09T04:26:04.313Z,1000.99
2018-12-09T04:27:04.300Z,1000.98
2018-12-09T04:28:04.290Z,1000.99
2018-12-09T04:29:04.292Z,1001.03
2018-12-09T04:30:04.270Z,1001.02
2018-12-09T04:31:04.259Z,1001.05
2018-12-09T04:32:04.257Z,1001.06
2018-12-09T04:33:04.240Z,1001.03
2018-12-09T04:34:04.234Z,1001.01
2018-12-09T04:35:04.219Z,1000.97
2018-12-09T04:36:04.208Z,1000.99
2018-12-09T04:37:04.198Z,1000.97
2018-12-09T04:38:04.187Z,1001.05
2018-12-09T04:39:04.175Z,1001.01
2018-12-09T04:40:04.167Z,1000.94
2018-12-09T04:41:04.159Z,1000.92
2018-12-09T04:42:04.147Z,1000.91
2018-12-09T04:43:04.135Z,1000.88
2018-12-09T04:44:04.126Z,1000.94
2018-12-09T04:45:04.114Z,1000.89
2018-12-09T04:46:04.104Z,1000.89
2018-12-09T04:47:04.094Z,1000.86
2018-12-09T04:48:04.084Z,1000.86
2018-12-09T04:49:04.074Z,1000.82
2018-12-09T04:50:04.062Z,1000.85
2018-12-09T04:51:04.053Z,1000.82
2018-12-09T04:52:04.044Z,1000.74
2018-12-09T04:53:04.031Z,1000.79
2018-12-09T04:54:04.023Z,1000.87
2018-12-09T04:55:04.014Z,1000.85
2018-12-09T04:56:04.002Z,1000.84
2018-12-09T04:57:04.291Z,1000.79
2018-12-09T04:58:03.981Z,1000.78
2018-12-09T04:59:03.971Z,1000.76
2018-12-09T05:00:03.962Z,1000.84
2018-12-09T05:01:03.951Z,1000.82
2018-12-09T05:02:03.939Z,1000.87
2018-12-09T05:03:03.930Z,1000.88
2018-12-09T05:04:03.921Z,1000.84
2018-12-09T05:05:03.909Z,1000.82
2018-12-09T05:06:03.900Z,1000.84
2018-12-09T05:07:03.892Z,1000.88
2018-12-09T05:08:03.878Z,1000.93
2018-12-09T05:09:03.869Z,1000.9
2018-12-09T05:10:03.861Z,1000.96
2018-12-09T05:11:03.849Z,1000.91
2018-12-09T05:12:03.869Z,1000.94
2018-12-09T05:13:03.830Z,1000.91
2018-12-09T05:14:03.818Z,1000.87
2018-12-09T05:15:03.817Z,1000.92
2018-12-09T05:16:03.802Z,1000.96
2018-12-09T05:17:03.788Z,1001.02
2018-12-09T05:18:03.779Z,1001
2018-12-09T05:19:03.768Z,1000.94
2018-12-09T05:20:03.758Z,1000.99
2018-12-09T05:21:03.749Z,1000.96
2018-12-09T05:22:03.737Z,1001.07
2018-12-09T05:23:03.727Z,1000.94
2018-12-09T05:24:03.716Z,1000.94
2018-12-09T05:25:03.706Z,1000.99
2018-12-09T05:26:03.697Z,1000.99
2018-12-09T05:27:03.686Z,1001.11
2018-12-09T05:28:03.677Z,1001.08
2018-12-09T05:29:03.671Z,1001.08
2018-12-09T05:30:03.655Z,1001.05
2018-12-09T05:31:03.646Z,1001.09
2018-12-09T05:32:03.636Z,1001.05
2018-12-09T05:33:03.624Z,1001.07
2018-12-09T05:34:03.614Z,1001.05
2018-12-09T05:35:03.604Z,1001.06
2018-12-09T05:36:03.596Z,1000.98
2018-12-09T05:37:03.584Z,1000.99
2018-12-09T05:38:03.574Z,1001.03
2018-12-09T05:39:03.564Z,1001.03
2018-12-09T05:40:03.559Z,1001.03
2018-12-09T05:41:03.546Z,1001.09
2018-12-09T05:42:03.534Z,1001.11
2018-12-09T05:43:03.522Z,1001.09
2018-12-09T05:44:03.512Z,1001.14
2018-12-09T05:45:03.501Z,1000.98
2018-12-09T05:46:03.493Z,1001.08
2018-12-09T05:47:03.483Z,1001.11
2018-12-09T05:48:03.472Z,1001.11
2018-12-09T05:49:03.460Z,1001.23
2018-12-09T05:50:03.452Z,1001.24
2018-12-09T05:51:03.440Z,1001.23
2018-12-09T05:52:03.434Z,1001.2
2018-12-09T05:53:03.421Z,1001.19
2018-12-09T05:54:03.410Z,1001.2
2018-12-09T05:55:03.399Z,1001.27
2018-12-09T05:56:03.388Z,1001.34
2018-12-09T05:57:03.379Z,1001.3
2018-12-09T05:58:03.370Z,1001.39
2018-12-09T05:59:03.359Z,1001.39
2018-12-09T06:00:03.349Z,1001.45
2018-12-09T06:01:03.338Z,1001.54
2018-12-09T06:02:03.328Z,1001.46
2018-12-09T06:03:03.319Z,1001.59
2018-12-09T06:04:03.308Z,1001.64
2018-12-09T06:05:03.299Z,1001.7
2018-12-09T06:06:03.286Z,1001.77
2018-12-09T06:07:03.277Z,1001.75
2018-12-09T06:08:03.267Z,1001.67
2018-12-09T06:09:03.257Z,1001.76
2018-12-09T06:10:03.246Z,1001.79
2018-12-09T06:11:03.236Z,1001.79
2018-12-09T06:12:03.225Z,1001.77
2018-12-09T06:13:03.214Z,1001.8
2018-12-09T06:14:03.204Z,1001.79
2018-12-09T06:15:03.194Z,1001.82
2018-12-09T06:16:03.183Z,1001.74
2018-12-09T06:17:03.173Z,1001.77
2018-12-09T06:18:03.162Z,1001.73
2018-12-09T06:19:03.151Z,1001.74
2018-12-09T06:20:03.141Z,1001.72
2018-12-09T06:21:03.131Z,1001.79
2018-12-09T06:22:03.121Z,1001.7
2018-12-09T06:23:03.117Z,1001.64
2018-12-09T06:24:03.099Z,1001.64
2018-12-09T06:25:03.094Z,1001.64
2018-12-09T06:26:03.081Z,1001.61
2018-12-09T06:27:03.069Z,1001.65
2018-12-09T06:28:03.058Z,1001.66
2018-12-09T06:29:03.048Z,1001.69
2018-12-09T06:30:03.036Z,1001.55
2018-12-09T06:31:03.025Z,1001.67
2018-12-09T06:32:03.014Z,1001.65
2018-12-09T06:33:03.004Z,1001.7
2018-12-09T06:34:02.995Z,1001.74
2018-12-09T06:35:02.987Z,1001.69
2018-12-09T06:36:02.973Z,1001.8
2018-12-09T06:37:02.963Z,1001.86
2018-12-09T06:38:02.953Z,1001.85
2018-12-09T06:39:02.942Z,1001.9
2018-12-09T06:40:02.931Z,1001.88
2018-12-09T06:41:02.921Z,1001.9
2018-12-09T06:42:02.912Z,1001.98
2018-12-09T06:43:02.899Z,1001.95
2018-12-09T06:44:02.889Z,1001.99
2018-12-09T06:45:02.881Z,1002.05
2018-12-09T06:46:02.868Z,1002.18
2018-12-09T06:47:02.858Z,1002.15
2018-12-09T06:48:02.847Z,1002.14
2018-12-09T06:49:02.836Z,1002.21
2018-12-09T06:50:02.825Z,1002.23
2018-12-09T06:51:02.816Z,1002.19
2018-12-09T06:52:02.805Z,1002.27
2018-12-09T06:53:02.875Z,1002.26
2018-12-09T06:54:02.788Z,1002.27
2018-12-09T06:55:02.774Z,1002.37
2018-12-09T06:56:02.763Z,1002.25
2018-12-09T06:57:02.842Z,1002.31
2018-12-09T06:58:02.744Z,1002.35
2018-12-09T06:59:02.732Z,1002.37
2018-12-09T07:00:02.722Z,1002.46
2018-12-09T07:01:02.710Z,1002.46
2018-12-09T07:02:02.699Z,1002.45
2018-12-09T07:03:02.688Z,1002.49
2018-12-09T07:04:02.678Z,1002.46
2018-12-09T07:05:02.667Z,1002.56
2018-12-09T07:06:02.657Z,1002.56
2018-12-09T07:07:02.647Z,1002.57
2018-12-09T07:08:02.642Z,1002.46
2018-12-09T07:09:02.625Z,1002.58
2018-12-09T07:10:02.616Z,1002.63
2018-12-09T07:11:02.604Z,1002.56
2018-12-09T07:12:02.592Z,1002.57
2018-12-09T07:13:02.581Z,1002.58
2018-12-09T07:14:02.571Z,1002.63
2018-12-09T07:15:02.560Z,1002.6
2018-12-09T07:16:02.548Z,1002.51
2018-12-09T07:17:02.539Z,1002.54
2018-12-09T07:18:02.529Z,1002.54
2018-12-09T07:19:02.517Z,1002.56
2018-12-09T07:20:02.506Z,1002.59
2018-12-09T07:21:02.496Z,1002.59
2018-12-09T07:22:02.484Z,1002.72
2018-12-09T07:23:02.472Z,1002.7
2018-12-09T07:24:02.465Z,1002.73
2018-12-09T07:25:02.452Z,1002.71
2018-12-09T07:26:02.442Z,1002.78
2018-12-09T07:27:02.431Z,1002.79
2018-12-09T07:28:02.421Z,1002.8
2018-12-09T07:29:02.411Z,1002.84
2018-12-09T07:30:02.863Z,1002.88
2018-12-09T07:31:02.389Z,1002.89
2018-12-09T07:32:02.381Z,1002.97
2018-12-09T07:33:02.368Z,1002.94
2018-12-09T07:34:02.356Z,1002.95
2018-12-09T07:35:02.346Z,1002.97
2018-12-09T07:36:02.335Z,1003.04
2018-12-09T07:37:02.325Z,1003.1
2018-12-09T07:38:02.315Z,1003.08
2018-12-09T07:39:02.306Z,1003.05
2018-12-09T07:40:02.294Z,1003.07
2018-12-09T07:41:02.282Z,1003.13
2018-12-09T07:42:02.271Z,1003.13
2018-12-09T07:43:02.262Z,1003.14
2018-12-09T07:44:02.251Z,1003.15
2018-12-09T07:45:02.240Z,1003.1
2018-12-09T07:46:02.229Z,1003.15
2018-12-09T07:47:02.217Z,1003.13
2018-12-09T07:48:02.209Z,1003.13
2018-12-09T07:49:02.196Z,1003.18
2018-12-09T07:50:02.187Z,1003.17
2018-12-09T07:51:02.177Z,1003.18
2018-12-09T07:52:02.165Z,1003.14
2018-12-09T07:53:02.155Z,1003.2
2018-12-09T07:54:02.143Z,1003.13
2018-12-09T07:55:02.134Z,1003.16
2018-12-09T07:56:02.123Z,1003.15
2018-12-09T07:57:02.114Z,1003.2
2018-12-09T07:58:02.101Z,1003.2
2018-12-09T07:59:02.090Z,1003.22
2018-12-09T08:00:02.079Z,1003.17
2018-12-09T08:01:02.070Z,1003.25
2018-12-09T08:02:02.063Z,1003.26
2018-12-09T08:03:02.050Z,1003.34
2018-12-09T08:04:02.040Z,1003.35
2018-12-09T08:05:02.029Z,1003.43
2018-12-09T08:06:02.018Z,1003.47
2018-12-09T08:07:02.006Z,1003.45
2018-12-09T08:08:02.000Z,1003.53
2018-12-09T08:09:01.987Z,1003.52
2018-12-09T08:10:01.974Z,1003.6
2018-12-09T08:11:01.964Z,1003.57
2018-12-09T08:12:01.954Z,1003.58
2018-12-09T08:13:01.943Z,1003.64
2018-12-09T08:14:01.934Z,1003.67
2018-12-09T08:15:01.924Z,1003.67
2018-12-09T08:16:01.913Z,1003.69
2018-12-09T08:17:01.906Z,1003.71
2018-12-09T08:18:01.892Z,1003.68
2018-12-09T08:19:01.881Z,1003.67
2018-12-09T08:20:01.879Z,1003.68
2018-12-09T08:21:01.862Z,1003.67
2018-12-09T08:22:01.849Z,1003.69
2018-12-09T08:23:01.839Z,1003.74
2018-12-09T08:24:01.828Z,1003.65
2018-12-09T08:25:01.819Z,1003.7
2018-12-09T08:26:01.808Z,1003.69
2018-12-09T08:27:01.797Z,1003.69
2018-12-09T08:28:01.787Z,1003.69
2018-12-09T08:29:01.777Z,1003.62
2018-12-09T08:30:01.766Z,1003.64
2018-12-09T08:31:01.763Z,1003.62
2018-12-09T08:32:01.745Z,1003.61
2018-12-09T08:33:01.735Z,1003.62
2018-12-09T08:34:01.724Z,1003.58
2018-12-09T08:35:01.715Z,1003.56
2018-12-09T08:36:01.703Z,1003.58
2018-12-09T08:37:01.701Z,1003.56
2018-12-09T08:38:01.687Z,1003.51
2018-12-09T08:39:01.673Z,1003.52
2018-12-09T08:40:01.663Z,1003.5
2018-12-09T08:41:01.653Z,1003.48
2018-12-09T08:42:01.642Z,1003.52
2018-12-09T08:43:01.630Z,1003.56
2018-12-09T08:44:01.620Z,1003.51
2018-12-09T08:45:01.671Z,1003.56
2018-12-09T08:46:01.601Z,1003.51
2018-12-09T08:47:01.590Z,1003.61
2018-12-09T08:48:01.580Z,1003.46
2018-12-09T08:49:01.570Z,1003.48
2018-12-09T08:50:01.563Z,1003.54
2018-12-09T08:51:01.548Z,1003.55
2018-12-09T08:52:01.538Z,1003.51
2018-12-09T08:53:01.529Z,1003.54
2018-12-09T08:54:02.756Z,1003.59
2018-12-09T08:55:01.509Z,1003.57
2018-12-09T08:56:01.499Z,1003.63
2018-12-09T08:57:01.489Z,1003.68
2018-12-09T08:58:01.478Z,1003.66
2018-12-09T08:59:01.468Z,1003.66
2018-12-09T09:00:01.459Z,1003.66
2018-12-09T09:01:01.448Z,1003.8
2018-12-09T09:02:01.437Z,1003.85
2018-12-09T09:03:01.429Z,1003.89
2018-12-09T09:04:01.418Z,1004
2018-12-09T09:05:01.415Z,1003.99
2018-12-09T09:06:01.399Z,1003.95
2018-12-09T09:07:01.389Z,1004.09
2018-12-09T09:08:01.380Z,1004.08
2018-12-09T09:09:01.369Z,1004.15
2018-12-09T09:10:01.358Z,1004.12
2018-12-09T09:11:01.348Z,1004.13
2018-12-09T09:12:01.338Z,1003.97
2018-12-09T09:13:01.329Z,1004.06
2018-12-09T09:14:01.318Z,1003.97
2018-12-09T09:15:01.308Z,1004.01
2018-12-09T09:16:01.297Z,1004.09
2018-12-09T09:17:01.288Z,1003.97
2018-12-09T09:18:01.279Z,1004.12
2018-12-09T09:19:01.271Z,1004.13
2018-12-09T09:20:01.259Z,1004.14
2018-12-09T09:21:01.250Z,1004.12
2018-12-09T09:22:01.238Z,1004.21
2018-12-09T09:23:01.227Z,1004.21
2018-12-09T09:24:01.219Z,1004.2
2018-12-09T09:25:01.209Z,1004.19
2018-12-09T09:26:01.199Z,1004.22
2018-12-09T09:27:01.188Z,1004.25
2018-12-09T09:28:01.181Z,1004.26
2018-12-09T09:29:01.168Z,1004.21
2018-12-09T09:30:01.182Z,1004.19
2018-12-09T09:31:01.151Z,1004.24
2018-12-09T09:32:01.139Z,1004.16
2018-12-09T09:33:01.129Z,1004.23
2018-12-09T09:34:01.117Z,1004.28
2018-12-09T09:35:01.112Z,1004.27
2018-12-09T09:36:01.099Z,1004.32
2018-12-09T09:37:01.094Z,1004.33
2018-12-09T09:38:01.079Z,1004.28
2018-12-09T09:39:01.068Z,1004.24
2018-12-09T09:40:01.060Z,1004.09
2018-12-09T09:41:01.054Z,1004.05
2018-12-09T09:42:01.039Z,1003.99
2018-12-09T09:43:01.030Z,1003.92
2018-12-09T09:44:01.020Z,1003.86
2018-12-09T09:45:01.010Z,1003.85
2018-12-09T09:46:01.000Z,1003.88
2018-12-09T09:47:00.991Z,1003.83
2018-12-09T09:48:00.980Z,1003.75
2018-12-09T09:49:00.970Z,1003.72
2018-12-09T09:50:00.960Z,1003.78
2018-12-09T09:51:00.951Z,1003.83
2018-12-09T09:52:00.943Z,1003.9
2018-12-09T09:53:00.931Z,1003.9
2018-12-09T09:54:00.924Z,1003.9
2018-12-09T09:55:00.914Z,1003.95
2018-12-09T09:56:00.904Z,1003.98
2018-12-09T09:57:00.895Z,1004.03
2018-12-09T09:58:00.884Z,1004
2018-12-09T09:59:00.875Z,1004.01
2018-12-09T10:00:00.865Z,1004.05
2018-12-09T10:01:00.863Z,1004.09
2018-12-09T10:02:00.848Z,1004.08
2018-12-09T10:03:00.843Z,1004.11
2018-12-09T10:04:00.829Z,1004.12
2018-12-09T10:05:00.820Z,1004.09
2018-12-09T10:06:00.811Z,1004.1
2018-12-09T10:07:00.800Z,1004.06
2018-12-09T10:08:00.792Z,1004.05
2018-12-09T10:09:00.785Z,1004.12
2018-12-09T10:10:00.773Z,1004.06
2018-12-09T10:11:00.762Z,1003.61
2018-12-09T10:12:00.752Z,1004.03
2018-12-09T10:13:00.743Z,1003.94
2018-12-09T10:14:00.736Z,1004
2018-12-09T10:15:00.726Z,1003.97
2018-12-09T10:16:00.716Z,1003.89
2018-12-09T10:17:00.708Z,1003.83
2018-12-09T10:18:02.636Z,1003.81
2018-12-09T10:19:00.688Z,1003.7
2018-12-09T10:20:00.679Z,1003.71
2018-12-09T10:21:00.671Z,1003.65
2018-12-09T10:22:00.660Z,1003.67
2018-12-09T10:23:00.651Z,1003.64
2018-12-09T10:24:00.642Z,1003.72
2018-12-09T10:25:00.631Z,1003.7
2018-12-09T10:26:00.624Z,1003.67
2018-12-09T10:27:00.614Z,1003.67
2018-12-09T10:28:00.608Z,1003.58
2018-12-09T10:29:00.597Z,1003.6
2018-12-09T10:30:00.588Z,1003.62
2018-12-09T10:31:00.578Z,1003.65
2018-12-09T10:32:00.568Z,1003.67
2018-12-09T10:33:00.577Z,1003.69
2018-12-09T10:34:00.552Z,1003.69
2018-12-09T10:35:00.543Z,1003.68
2018-12-09T10:36:00.534Z,1003.65
2018-12-09T10:37:00.525Z,1003.6
2018-12-09T10:38:00.516Z,1003.59
2018-12-09T10:39:00.508Z,1003.53
2018-12-09T10:40:00.497Z,1003.51
2018-12-09T10:41:00.491Z,1003.47
2018-12-09T10:42:00.480Z,1003.43
2018-12-09T10:43:00.473Z,1003.48
2018-12-09T10:44:00.462Z,1003.47
2018-12-09T10:45:00.455Z,1003.48
2018-12-09T10:46:00.447Z,1003.54
2018-12-09T10:47:00.437Z,1003.58
2018-12-09T10:48:00.432Z,1003.55
2018-12-09T10:49:00.421Z,1003.57
2018-12-09T10:50:00.412Z,1003.52
2018-12-09T10:51:00.403Z,1003.59
2018-12-09T10:52:00.394Z,1003.64
2018-12-09T10:53:00.385Z,1003.74
2018-12-09T10:54:00.377Z,1003.8
2018-12-09T10:55:00.369Z,1003.83
2018-12-09T10:56:00.359Z,1003.86
2018-12-09T10:57:00.351Z,1003.89
2018-12-09T10:58:00.342Z,1003.87
2018-12-09T10:59:00.334Z,1003.85
2018-12-09T11:00:00.327Z,1003.85
2018-12-09T11:01:00.317Z,1003.83
2018-12-09T11:02:00.306Z,1003.89
2018-12-09T11:03:00.298Z,1003.88
2018-12-09T11:04:00.289Z,1003.9
2018-12-09T11:05:00.282Z,1003.89
2018-12-09T11:06:00.273Z,1003.83
2018-12-09T11:07:00.263Z,1003.77
2018-12-09T11:08:00.254Z,1003.67
2018-12-09T11:09:00.245Z,1003.62
2018-12-09T11:10:00.237Z,1003.57
2018-12-09T11:11:00.230Z,1003.44
2018-12-09T11:12:00.285Z,1003.35
2018-12-09T11:13:00.211Z,1003.24
2018-12-09T11:14:00.202Z,1003.15
2018-12-09T11:15:00.194Z,1003.1
2018-12-09T11:16:00.187Z,1003.04
2018-12-09T11:17:00.176Z,1003.03
2018-12-09T11:18:00.170Z,1003.1
2018-12-09T11:19:00.162Z,1003.13
2018-12-09T11:20:00.153Z,1003.17
2018-12-09T11:21:00.143Z,1003.17
2018-12-09T11:22:00.137Z,1003.11
2018-12-09T11:23:00.129Z,1003.19
2018-12-09T11:24:00.122Z,1003.2
2018-12-09T11:25:00.112Z,1003.22
2018-12-09T11:26:00.103Z,1003.22
2018-12-09T11:27:00.095Z,1003.27
2018-12-09T11:28:00.087Z,1003.31
2018-12-09T11:29:01.111Z,1003.32
2018-12-09T11:30:00.072Z,1003.36
2018-12-09T11:31:00.063Z,1003.42
2018-12-09T11:32:00.054Z,1003.44
2018-12-09T11:33:00.047Z,1003.5
2018-12-09T11:34:00.040Z,1003.58
2018-12-09T11:35:00.032Z,1003.53
2018-12-09T11:36:00.024Z,1003.56
2018-12-09T11:37:00.119Z,1003.62
2018-12-09T11:38:00.007Z,1003.63
2018-12-09T11:39:00.000Z,1003.64
2018-12-09T11:39:59.991Z,1003.62
2018-12-09T11:40:59.997Z,1003.58
2018-12-09T11:41:59.975Z,1003.61
2018-12-09T11:42:59.967Z,1003.67
2018-12-09T11:43:59.963Z,1003.7
2018-12-09T11:44:59.950Z,1003.77
2018-12-09T11:45:59.943Z,1003.81
2018-12-09T11:46:59.935Z,1003.84
2018-12-09T11:47:59.927Z,1003.94
2018-12-09T11:48:59.919Z,1004.05
2018-12-09T11:49:59.908Z,1004.07
2018-12-09T11:50:59.902Z,1004.13
2018-12-09T11:51:59.893Z,1004.23
2018-12-09T11:52:59.883Z,1004.26
2018-12-09T11:53:59.876Z,1004.3
2018-12-09T11:54:59.868Z,1004.4
2018-12-09T11:55:59.860Z,1004.4
2018-12-09T11:56:59.850Z,1004.35
2018-12-09T11:57:59.843Z,1004.37
2018-12-09T11:58:59.833Z,1004.36
2018-12-09T11:59:59.824Z,1004.43
2018-12-09T12:00:59.815Z,1004.42
2018-12-09T12:01:59.805Z,1004.46
2018-12-09T12:02:59.797Z,1004.43
2018-12-09T12:03:59.789Z,1004.42
2018-12-09T12:04:59.779Z,1004.44
2018-12-09T12:05:59.771Z,1004.39
2018-12-09T12:06:59.767Z,1004.36
2018-12-09T12:07:59.761Z,1004.37